sensor_id;sensor_type;location;lat;lon;timestamp;P1;durP1;ratioP1;P2;durP2;ratioP2
35959;SDS011;22043;50.970;7.192;2024-03-02T00:01:58;3.10;;;0.93;;
35959;SDS011;22043;50.970;7.192;2024-03-02T00:04:23;2.63;;;1.10;;
35959;SDS011;22043;50.970;7.192;2024-03-02T00:06:51;2.95;;;0.73;;
35959;SDS011;22043;50.970;7.192;2024-03-02T00:09:17;2.55;;;1.20;;
35959;SDS011;22043;50.970;7.192;2024-03-02T00:11:43;2.15;;;1.00;;
35959;SDS011;22043;50.970;7.192;2024-03-02T00:14:09;2.55;;;1.08;;
35959;SDS011;22043;50.970;7.192;2024-03-02T00:16:34;1.67;;;0.68;;
35959;SDS011;22043;50.970;7.192;2024-03-02T00:19:01;2.03;;;0.80;;
35959;SDS011;22043;50.970;7.192;2024-03-02T00:21:27;3.05;;;1.20;;
35959;SDS011;22043;50.970;7.192;2024-03-02T00:23:55;1.45;;;0.75;;
35959;SDS011;22043;50.970;7.192;2024-03-02T00:26:20;2.70;;;0.90;;
35959;SDS011;22043;50.970;7.192;2024-03-02T00:28:46;1.38;;;0.70;;
35959;SDS011;22043;50.970;7.192;2024-03-02T00:31:12;1.92;;;0.70;;
35959;SDS011;22043;50.970;7.192;2024-03-02T00:33:42;1.50;;;0.80;;
35959;SDS011;22043;50.970;7.192;2024-03-02T00:36:08;2.25;;;0.80;;
35959;SDS011;22043;50.970;7.192;2024-03-02T00:38:35;1.65;;;0.82;;
35959;SDS011;22043;50.970;7.192;2024-03-02T00:41:27;2.08;;;1.15;;
35959;SDS011;22043;50.970;7.192;2024-03-02T00:43:57;2.30;;;0.90;;
35959;SDS011;22043;50.970;7.192;2024-03-02T00:46:41;1.98;;;0.70;;
35959;SDS011;22043;50.970;7.192;2024-03-02T00:51:35;1.40;;;0.52;;
35959;SDS011;22043;50.970;7.192;2024-03-02T00:54:03;1.60;;;0.90;;
35959;SDS011;22043;50.970;7.192;2024-03-02T00:56:29;2.05;;;0.80;;
35959;SDS011;22043;50.970;7.192;2024-03-02T00:58:55;2.03;;;0.70;;
35959;SDS011;22043;50.970;7.192;2024-03-02T01:01:21;2.55;;;1.00;;
35959;SDS011;22043;50.970;7.192;2024-03-02T01:03:47;1.83;;;0.80;;
35959;SDS011;22043;50.970;7.192;2024-03-02T01:06:14;4.00;;;0.65;;
35959;SDS011;22043;50.970;7.192;2024-03-02T01:08:40;2.42;;;0.90;;
35959;SDS011;22043;50.970;7.192;2024-03-02T01:11:05;3.30;;;0.88;;
35959;SDS011;22043;50.970;7.192;2024-03-02T01:13:31;2.90;;;0.95;;
35959;SDS011;22043;50.970;7.192;2024-03-02T01:15:57;2.28;;;0.95;;
35959;SDS011;22043;50.970;7.192;2024-03-02T01:18:22;5.63;;;1.00;;
35959;SDS011;22043;50.970;7.192;2024-03-02T01:20:48;1.85;;;0.70;;
35959;SDS011;22043;50.970;7.192;2024-03-02T01:23:16;2.22;;;0.80;;
35959;SDS011;22043;50.970;7.192;2024-03-02T01:25:46;1.55;;;0.70;;
35959;SDS011;22043;50.970;7.192;2024-03-02T01:28:12;1.63;;;0.73;;
35959;SDS011;22043;50.970;7.192;2024-03-02T01:30:38;2.13;;;0.77;;
35959;SDS011;22043;50.970;7.192;2024-03-02T01:33:03;1.90;;;0.60;;
35959;SDS011;22043;50.970;7.192;2024-03-02T01:35:30;1.30;;;0.80;;
35959;SDS011;22043;50.970;7.192;2024-03-02T01:38:00;3.13;;;0.70;;
35959;SDS011;22043;50.970;7.192;2024-03-02T01:40:25;0.93;;;0.47;;
35959;SDS011;22043;50.970;7.192;2024-03-02T01:42:51;2.35;;;0.80;;
35959;SDS011;22043;50.970;7.192;2024-03-02T01:45:17;3.90;;;0.90;;
35959;SDS011;22043;50.970;7.192;2024-03-02T01:47:43;3.08;;;0.90;;
35959;SDS011;22043;50.970;7.192;2024-03-02T01:50:08;2.75;;;0.57;;
35959;SDS011;22043;50.970;7.192;2024-03-02T01:52:36;3.25;;;0.95;;
35959;SDS011;22043;50.970;7.192;2024-03-02T01:55:02;1.58;;;0.68;;
35959;SDS011;22043;50.970;7.192;2024-03-02T01:57:29;1.13;;;0.52;;
35959;SDS011;22043;50.970;7.192;2024-03-02T01:59:54;1.33;;;0.52;;
35959;SDS011;22043;50.970;7.192;2024-03-02T02:02:20;2.22;;;0.77;;
35959;SDS011;22043;50.970;7.192;2024-03-02T02:04:45;2.38;;;0.90;;
35959;SDS011;22043;50.970;7.192;2024-03-02T02:07:11;2.42;;;0.70;;
35959;SDS011;22043;50.970;7.192;2024-03-02T02:09:36;1.88;;;0.75;;
35959;SDS011;22043;50.970;7.192;2024-03-02T02:12:02;2.92;;;1.08;;
35959;SDS011;22043;50.970;7.192;2024-03-02T02:14:29;2.15;;;0.55;;
35959;SDS011;22043;50.970;7.192;2024-03-02T02:16:55;2.22;;;0.75;;
35959;SDS011;22043;50.970;7.192;2024-03-02T02:19:21;2.55;;;0.68;;
35959;SDS011;22043;50.970;7.192;2024-03-02T02:21:47;1.42;;;0.77;;
35959;SDS011;22043;50.970;7.192;2024-03-02T02:24:12;2.35;;;0.85;;
35959;SDS011;22043;50.970;7.192;2024-03-02T02:26:38;2.30;;;0.70;;
35959;SDS011;22043;50.970;7.192;2024-03-02T02:29:04;1.92;;;0.90;;
35959;SDS011;22043;50.970;7.192;2024-03-02T02:31:41;3.03;;;0.80;;
35959;SDS011;22043;50.970;7.192;2024-03-02T02:34:07;1.40;;;0.55;;
35959;SDS011;22043;50.970;7.192;2024-03-02T02:36:33;2.03;;;0.60;;
35959;SDS011;22043;50.970;7.192;2024-03-02T02:39:00;2.00;;;0.45;;
35959;SDS011;22043;50.970;7.192;2024-03-02T02:41:28;1.75;;;1.00;;
35959;SDS011;22043;50.970;7.192;2024-03-02T02:43:54;1.70;;;0.85;;
35959;SDS011;22043;50.970;7.192;2024-03-02T02:46:20;1.65;;;0.88;;
35959;SDS011;22043;50.970;7.192;2024-03-02T02:48:45;3.28;;;0.60;;
35959;SDS011;22043;50.970;7.192;2024-03-02T02:51:11;6.32;;;0.80;;
35959;SDS011;22043;50.970;7.192;2024-03-02T02:53:36;1.73;;;1.10;;
35959;SDS011;22043;50.970;7.192;2024-03-02T02:56:05;2.45;;;0.80;;
35959;SDS011;22043;50.970;7.192;2024-03-02T02:58:33;2.17;;;1.00;;
35959;SDS011;22043;50.970;7.192;2024-03-02T03:00:59;3.22;;;0.90;;
35959;SDS011;22043;50.970;7.192;2024-03-02T03:03:24;1.85;;;0.77;;
35959;SDS011;22043;50.970;7.192;2024-03-02T03:05:50;1.92;;;0.70;;
35959;SDS011;22043;50.970;7.192;2024-03-02T03:08:15;2.40;;;0.85;;
35959;SDS011;22043;50.970;7.192;2024-03-02T03:10:41;1.65;;;0.70;;
35959;SDS011;22043;50.970;7.192;2024-03-02T03:13:07;1.55;;;0.60;;
35959;SDS011;22043;50.970;7.192;2024-03-02T03:15:35;1.55;;;0.63;;
35959;SDS011;22043;50.970;7.192;2024-03-02T03:18:04;1.42;;;0.65;;
35959;SDS011;22043;50.970;7.192;2024-03-02T03:20:30;1.95;;;0.90;;
35959;SDS011;22043;50.970;7.192;2024-03-02T03:22:56;1.50;;;0.75;;
35959;SDS011;22043;50.970;7.192;2024-03-02T03:25:22;3.22;;;0.73;;
35959;SDS011;22043;50.970;7.192;2024-03-02T03:27:47;1.77;;;0.80;;
35959;SDS011;22043;50.970;7.192;2024-03-02T03:30:13;1.88;;;0.70;;
35959;SDS011;22043;50.970;7.192;2024-03-02T03:32:38;2.15;;;0.70;;
35959;SDS011;22043;50.970;7.192;2024-03-02T03:35:04;2.03;;;0.85;;
35959;SDS011;22043;50.970;7.192;2024-03-02T03:37:30;2.15;;;1.23;;
35959;SDS011;22043;50.970;7.192;2024-03-02T03:39:58;2.75;;;0.98;;
35959;SDS011;22043;50.970;7.192;2024-03-02T03:42:24;1.75;;;0.85;;
35959;SDS011;22043;50.970;7.192;2024-03-02T03:44:49;2.13;;;0.80;;
35959;SDS011;22043;50.970;7.192;2024-03-02T03:47:15;4.70;;;1.23;;
35959;SDS011;22043;50.970;7.192;2024-03-02T03:49:40;3.20;;;0.85;;
35959;SDS011;22043;50.970;7.192;2024-03-02T03:52:06;2.33;;;1.08;;
35959;SDS011;22043;50.970;7.192;2024-03-02T03:54:31;1.98;;;0.95;;
35959;SDS011;22043;50.970;7.192;2024-03-02T03:56:57;2.85;;;0.93;;
35959;SDS011;22043;50.970;7.192;2024-03-02T03:59:23;2.38;;;1.02;;
35959;SDS011;22043;50.970;7.192;2024-03-02T04:01:49;2.38;;;1.00;;
35959;SDS011;22043;50.970;7.192;2024-03-02T04:04:14;2.88;;;0.85;;
35959;SDS011;22043;50.970;7.192;2024-03-02T04:06:40;3.17;;;1.17;;
35959;SDS011;22043;50.970;7.192;2024-03-02T04:09:05;3.35;;;1.00;;
35959;SDS011;22043;50.970;7.192;2024-03-02T04:11:30;2.53;;;0.95;;
35959;SDS011;22043;50.970;7.192;2024-03-02T04:13:56;1.90;;;0.80;;
35959;SDS011;22043;50.970;7.192;2024-03-02T04:16:21;2.13;;;0.95;;
35959;SDS011;22043;50.970;7.192;2024-03-02T04:18:47;3.72;;;1.17;;
35959;SDS011;22043;50.970;7.192;2024-03-02T04:21:13;2.35;;;1.10;;
35959;SDS011;22043;50.970;7.192;2024-03-02T04:23:38;5.28;;;1.95;;
35959;SDS011;22043;50.970;7.192;2024-03-02T04:26:04;2.95;;;1.30;;
35959;SDS011;22043;50.970;7.192;2024-03-02T04:28:29;2.17;;;1.00;;
35959;SDS011;22043;50.970;7.192;2024-03-02T04:30:55;2.92;;;0.93;;
35959;SDS011;22043;50.970;7.192;2024-03-02T04:33:20;3.85;;;1.27;;
35959;SDS011;22043;50.970;7.192;2024-03-02T04:35:46;2.22;;;1.08;;
35959;SDS011;22043;50.970;7.192;2024-03-02T04:38:11;2.63;;;1.00;;
35959;SDS011;22043;50.970;7.192;2024-03-02T04:40:37;3.65;;;1.20;;
35959;SDS011;22043;50.970;7.192;2024-03-02T04:43:02;2.47;;;1.08;;
35959;SDS011;22043;50.970;7.192;2024-03-02T04:45:29;1.92;;;0.90;;
35959;SDS011;22043;50.970;7.192;2024-03-02T04:47:55;3.42;;;1.20;;
35959;SDS011;22043;50.970;7.192;2024-03-02T04:50:20;2.78;;;1.05;;
35959;SDS011;22043;50.970;7.192;2024-03-02T04:52:45;4.40;;;0.90;;
35959;SDS011;22043;50.970;7.192;2024-03-02T04:55:11;2.92;;;1.25;;
35959;SDS011;22043;50.970;7.192;2024-03-02T04:57:55;2.67;;;1.20;;
35959;SDS011;22043;50.970;7.192;2024-03-02T05:00:21;2.78;;;1.25;;
35959;SDS011;22043;50.970;7.192;2024-03-02T05:02:46;6.95;;;1.77;;
35959;SDS011;22043;50.970;7.192;2024-03-02T05:05:12;4.05;;;1.45;;
35959;SDS011;22043;50.970;7.192;2024-03-02T05:07:37;4.88;;;1.90;;
35959;SDS011;22043;50.970;7.192;2024-03-02T05:10:03;3.42;;;1.20;;
35959;SDS011;22043;50.970;7.192;2024-03-02T05:12:29;3.33;;;1.40;;
35959;SDS011;22043;50.970;7.192;2024-03-02T05:15:14;2.28;;;1.20;;
35959;SDS011;22043;50.970;7.192;2024-03-02T05:17:40;2.85;;;1.15;;
35959;SDS011;22043;50.970;7.192;2024-03-02T05:20:08;3.50;;;1.50;;
35959;SDS011;22043;50.970;7.192;2024-03-02T05:22:34;3.28;;;1.30;;
35959;SDS011;22043;50.970;7.192;2024-03-02T05:25:00;3.15;;;1.23;;
35959;SDS011;22043;50.970;7.192;2024-03-02T05:27:26;4.80;;;1.55;;
35959;SDS011;22043;50.970;7.192;2024-03-02T05:29:52;3.33;;;1.50;;
35959;SDS011;22043;50.970;7.192;2024-03-02T05:32:18;4.60;;;1.50;;
35959;SDS011;22043;50.970;7.192;2024-03-02T05:34:43;3.40;;;1.27;;
35959;SDS011;22043;50.970;7.192;2024-03-02T05:37:09;3.67;;;1.38;;
35959;SDS011;22043;50.970;7.192;2024-03-02T05:39:34;2.95;;;1.33;;
35959;SDS011;22043;50.970;7.192;2024-03-02T05:41:59;3.17;;;1.27;;
35959;SDS011;22043;50.970;7.192;2024-03-02T05:44:25;4.03;;;2.03;;
35959;SDS011;22043;50.970;7.192;2024-03-02T05:46:50;3.08;;;1.60;;
35959;SDS011;22043;50.970;7.192;2024-03-02T05:49:16;4.20;;;1.50;;
35959;SDS011;22043;50.970;7.192;2024-03-02T05:51:41;3.95;;;1.60;;
35959;SDS011;22043;50.970;7.192;2024-03-02T05:54:07;4.20;;;1.70;;
35959;SDS011;22043;50.970;7.192;2024-03-02T05:56:32;3.65;;;2.00;;
35959;SDS011;22043;50.970;7.192;2024-03-02T05:58:58;4.05;;;1.77;;
35959;SDS011;22043;50.970;7.192;2024-03-02T06:01:38;4.90;;;1.80;;
35959;SDS011;22043;50.970;7.192;2024-03-02T06:04:04;4.53;;;1.58;;
35959;SDS011;22043;50.970;7.192;2024-03-02T06:06:29;6.90;;;1.88;;
35959;SDS011;22043;50.970;7.192;2024-03-02T06:08:55;3.95;;;1.85;;
35959;SDS011;22043;50.970;7.192;2024-03-02T06:11:20;4.07;;;1.80;;
35959;SDS011;22043;50.970;7.192;2024-03-02T06:13:45;4.03;;;1.90;;
35959;SDS011;22043;50.970;7.192;2024-03-02T06:16:11;3.38;;;1.67;;
35959;SDS011;22043;50.970;7.192;2024-03-02T06:18:36;5.13;;;1.98;;
35959;SDS011;22043;50.970;7.192;2024-03-02T06:21:02;4.28;;;2.05;;
35959;SDS011;22043;50.970;7.192;2024-03-02T06:23:28;3.33;;;1.45;;
35959;SDS011;22043;50.970;7.192;2024-03-02T06:25:54;4.72;;;1.88;;
35959;SDS011;22043;50.970;7.192;2024-03-02T06:28:19;3.20;;;1.73;;
35959;SDS011;22043;50.970;7.192;2024-03-02T06:30:45;5.82;;;2.05;;
35959;SDS011;22043;50.970;7.192;2024-03-02T06:33:11;4.47;;;1.90;;
35959;SDS011;22043;50.970;7.192;2024-03-02T06:35:36;4.10;;;1.88;;
35959;SDS011;22043;50.970;7.192;2024-03-02T06:38:02;4.47;;;1.73;;
35959;SDS011;22043;50.970;7.192;2024-03-02T06:40:27;4.43;;;2.10;;
35959;SDS011;22043;50.970;7.192;2024-03-02T06:42:53;6.30;;;2.58;;
35959;SDS011;22043;50.970;7.192;2024-03-02T06:45:18;3.67;;;1.60;;
35959;SDS011;22043;50.970;7.192;2024-03-02T06:47:44;3.85;;;1.70;;
35959;SDS011;22043;50.970;7.192;2024-03-02T06:50:09;6.68;;;1.92;;
35959;SDS011;22043;50.970;7.192;2024-03-02T06:52:35;4.80;;;1.73;;
35959;SDS011;22043;50.970;7.192;2024-03-02T06:55:01;4.72;;;1.50;;
35959;SDS011;22043;50.970;7.192;2024-03-02T06:57:27;4.65;;;1.50;;
35959;SDS011;22043;50.970;7.192;2024-03-02T06:59:52;6.28;;;1.73;;
35959;SDS011;22043;50.970;7.192;2024-03-02T07:02:20;6.53;;;1.55;;
35959;SDS011;22043;50.970;7.192;2024-03-02T07:04:46;5.75;;;1.55;;
35959;SDS011;22043;50.970;7.192;2024-03-02T07:07:11;4.80;;;1.70;;
35959;SDS011;22043;50.970;7.192;2024-03-02T07:09:37;3.58;;;1.70;;
35959;SDS011;22043;50.970;7.192;2024-03-02T07:12:03;4.22;;;1.85;;
35959;SDS011;22043;50.970;7.192;2024-03-02T07:14:28;4.28;;;1.55;;
35959;SDS011;22043;50.970;7.192;2024-03-02T07:17:29;6.63;;;1.65;;
35959;SDS011;22043;50.970;7.192;2024-03-02T07:19:55;3.58;;;1.45;;
35959;SDS011;22043;50.970;7.192;2024-03-02T07:22:21;5.35;;;1.52;;
35959;SDS011;22043;50.970;7.192;2024-03-02T07:24:47;4.00;;;1.35;;
35959;SDS011;22043;50.970;7.192;2024-03-02T07:27:13;3.97;;;1.88;;
35959;SDS011;22043;50.970;7.192;2024-03-02T07:29:39;4.25;;;1.60;;
35959;SDS011;22043;50.970;7.192;2024-03-02T07:32:05;5.22;;;1.80;;
35959;SDS011;22043;50.970;7.192;2024-03-02T07:34:31;4.72;;;1.70;;
35959;SDS011;22043;50.970;7.192;2024-03-02T07:36:57;5.22;;;1.63;;
35959;SDS011;22043;50.970;7.192;2024-03-02T07:39:22;2.75;;;1.38;;
35959;SDS011;22043;50.970;7.192;2024-03-02T07:41:48;3.40;;;1.63;;
35959;SDS011;22043;50.970;7.192;2024-03-02T07:44:14;2.17;;;1.15;;
35959;SDS011;22043;50.970;7.192;2024-03-02T07:46:42;3.00;;;1.23;;
35959;SDS011;22043;50.970;7.192;2024-03-02T07:49:08;2.55;;;0.98;;
35959;SDS011;22043;50.970;7.192;2024-03-02T07:51:34;3.30;;;1.08;;
35959;SDS011;22043;50.970;7.192;2024-03-02T07:53:59;3.20;;;1.58;;
35959;SDS011;22043;50.970;7.192;2024-03-02T07:56:25;4.28;;;1.20;;
35959;SDS011;22043;50.970;7.192;2024-03-02T07:58:50;5.88;;;1.48;;
35959;SDS011;22043;50.970;7.192;2024-03-02T08:01:16;1.83;;;0.90;;
35959;SDS011;22043;50.970;7.192;2024-03-02T08:03:42;3.80;;;1.33;;
35959;SDS011;22043;50.970;7.192;2024-03-02T08:06:13;4.35;;;1.17;;
35959;SDS011;22043;50.970;7.192;2024-03-02T08:08:40;5.38;;;1.20;;
35959;SDS011;22043;50.970;7.192;2024-03-02T08:11:05;2.90;;;1.30;;
35959;SDS011;22043;50.970;7.192;2024-03-02T08:13:31;3.33;;;1.45;;
35959;SDS011;22043;50.970;7.192;2024-03-02T08:15:56;2.72;;;1.65;;
35959;SDS011;22043;50.970;7.192;2024-03-02T08:18:22;3.97;;;1.20;;
35959;SDS011;22043;50.970;7.192;2024-03-02T08:20:47;3.75;;;2.20;;
35959;SDS011;22043;50.970;7.192;2024-03-02T08:23:13;3.70;;;1.65;;
35959;SDS011;22043;50.970;7.192;2024-03-02T08:25:38;2.17;;;1.00;;
35959;SDS011;22043;50.970;7.192;2024-03-02T08:28:03;3.05;;;1.27;;
35959;SDS011;22043;50.970;7.192;2024-03-02T08:30:29;3.63;;;1.20;;
35959;SDS011;22043;50.970;7.192;2024-03-02T08:32:55;3.67;;;1.10;;
35959;SDS011;22043;50.970;7.192;2024-03-02T08:35:20;3.00;;;0.80;;
35959;SDS011;22043;50.970;7.192;2024-03-02T08:37:47;2.63;;;1.00;;
35959;SDS011;22043;50.970;7.192;2024-03-02T08:40:13;4.40;;;1.23;;
35959;SDS011;22043;50.970;7.192;2024-03-02T08:42:39;3.17;;;1.23;;
35959;SDS011;22043;50.970;7.192;2024-03-02T08:45:04;2.70;;;1.15;;
35959;SDS011;22043;50.970;7.192;2024-03-02T08:47:31;4.53;;;1.10;;
35959;SDS011;22043;50.970;7.192;2024-03-02T08:49:56;3.35;;;0.98;;
35959;SDS011;22043;50.970;7.192;2024-03-02T08:52:21;1.63;;;0.70;;
35959;SDS011;22043;50.970;7.192;2024-03-02T08:54:47;3.58;;;0.73;;
35959;SDS011;22043;50.970;7.192;2024-03-02T08:57:12;2.38;;;0.73;;
35959;SDS011;22043;50.970;7.192;2024-03-02T08:59:38;2.58;;;0.80;;
35959;SDS011;22043;50.970;7.192;2024-03-02T09:02:04;2.78;;;1.65;;
35959;SDS011;22043;50.970;7.192;2024-03-02T09:04:29;3.75;;;0.80;;
35959;SDS011;22043;50.970;7.192;2024-03-02T09:06:54;1.77;;;1.27;;
35959;SDS011;22043;50.970;7.192;2024-03-02T09:09:20;3.90;;;0.70;;
35959;SDS011;22043;50.970;7.192;2024-03-02T09:11:46;3.85;;;0.75;;
35959;SDS011;22043;50.970;7.192;2024-03-02T09:14:11;1.33;;;0.60;;
35959;SDS011;22043;50.970;7.192;2024-03-02T09:16:37;1.95;;;0.75;;
35959;SDS011;22043;50.970;7.192;2024-03-02T09:19:03;3.17;;;0.70;;
35959;SDS011;22043;50.970;7.192;2024-03-02T09:21:28;1.55;;;0.75;;
35959;SDS011;22043;50.970;7.192;2024-03-02T09:23:55;2.50;;;1.20;;
35959;SDS011;22043;50.970;7.192;2024-03-02T09:26:21;5.65;;;0.80;;
35959;SDS011;22043;50.970;7.192;2024-03-02T09:28:47;1.10;;;0.60;;
35959;SDS011;22043;50.970;7.192;2024-03-02T09:31:13;2.92;;;0.75;;
35959;SDS011;22043;50.970;7.192;2024-03-02T09:33:38;1.88;;;0.70;;
35959;SDS011;22043;50.970;7.192;2024-03-02T09:38:41;2.03;;;1.08;;
35959;SDS011;22043;50.970;7.192;2024-03-02T09:41:06;2.92;;;1.02;;
35959;SDS011;22043;50.970;7.192;2024-03-02T09:43:32;3.17;;;0.65;;
35959;SDS011;22043;50.970;7.192;2024-03-02T09:45:57;3.88;;;0.60;;
35959;SDS011;22043;50.970;7.192;2024-03-02T09:48:23;2.72;;;0.80;;
35959;SDS011;22043;50.970;7.192;2024-03-02T09:50:48;1.30;;;0.65;;
35959;SDS011;22043;50.970;7.192;2024-03-02T09:53:14;1.75;;;1.00;;
35959;SDS011;22043;50.970;7.192;2024-03-02T09:55:39;1.67;;;0.60;;
35959;SDS011;22043;50.970;7.192;2024-03-02T09:58:08;3.08;;;0.80;;
35959;SDS011;22043;50.970;7.192;2024-03-02T10:00:34;1.30;;;0.65;;
35959;SDS011;22043;50.970;7.192;2024-03-02T10:02:59;2.65;;;0.70;;
35959;SDS011;22043;50.970;7.192;2024-03-02T10:05:26;2.65;;;0.80;;
35959;SDS011;22043;50.970;7.192;2024-03-02T10:08:00;1.45;;;0.65;;
35959;SDS011;22043;50.970;7.192;2024-03-02T10:10:34;3.55;;;0.80;;
35959;SDS011;22043;50.970;7.192;2024-03-02T10:13:07;1.58;;;0.70;;
35959;SDS011;22043;50.970;7.192;2024-03-02T10:15:33;2.83;;;1.13;;
35959;SDS011;22043;50.970;7.192;2024-03-02T10:17:59;4.45;;;0.98;;
35959;SDS011;22043;50.970;7.192;2024-03-02T10:20:25;3.67;;;0.98;;
35959;SDS011;22043;50.970;7.192;2024-03-02T10:22:51;2.60;;;0.88;;
35959;SDS011;22043;50.970;7.192;2024-03-02T10:25:29;2.75;;;0.95;;
35959;SDS011;22043;50.970;7.192;2024-03-02T10:27:58;1.58;;;0.80;;
35959;SDS011;22043;50.970;7.192;2024-03-02T10:30:25;3.10;;;0.77;;
35959;SDS011;22043;50.970;7.192;2024-03-02T10:32:54;3.63;;;0.70;;
35959;SDS011;22043;50.970;7.192;2024-03-02T10:35:22;2.90;;;1.15;;
35959;SDS011;22043;50.970;7.192;2024-03-02T10:37:51;2.53;;;1.33;;
35959;SDS011;22043;50.970;7.192;2024-03-02T10:40:17;4.25;;;0.75;;
35959;SDS011;22043;50.970;7.192;2024-03-02T10:42:43;2.20;;;0.93;;
35959;SDS011;22043;50.970;7.192;2024-03-02T10:45:10;5.23;;;1.10;;
35959;SDS011;22043;50.970;7.192;2024-03-02T10:47:37;3.47;;;1.08;;
35959;SDS011;22043;50.970;7.192;2024-03-02T10:50:04;1.67;;;0.70;;
35959;SDS011;22043;50.970;7.192;2024-03-02T10:52:36;2.63;;;0.90;;
35959;SDS011;22043;50.970;7.192;2024-03-02T10:55:02;2.25;;;0.90;;
35959;SDS011;22043;50.970;7.192;2024-03-02T11:00:12;1.80;;;0.80;;
35959;SDS011;22043;50.970;7.192;2024-03-02T11:05:26;3.10;;;0.90;;
35959;SDS011;22043;50.970;7.192;2024-03-02T11:08:00;1.20;;;0.43;;
35959;SDS011;22043;50.970;7.192;2024-03-02T11:10:30;4.75;;;1.20;;
35959;SDS011;22043;50.970;7.192;2024-03-02T11:13:02;4.15;;;0.95;;
35959;SDS011;22043;50.970;7.192;2024-03-02T11:15:29;2.80;;;0.45;;
35959;SDS011;22043;50.970;7.192;2024-03-02T11:17:55;1.67;;;0.52;;
35959;SDS011;22043;50.970;7.192;2024-03-02T11:20:21;2.15;;;0.50;;
35959;SDS011;22043;50.970;7.192;2024-03-02T11:22:46;0.88;;;0.50;;
35959;SDS011;22043;50.970;7.192;2024-03-02T11:25:22;2.50;;;0.90;;
35959;SDS011;22043;50.970;7.192;2024-03-02T11:28:00;2.28;;;0.57;;
35959;SDS011;22043;50.970;7.192;2024-03-02T11:35:32;1.85;;;0.82;;
35959;SDS011;22043;50.970;7.192;2024-03-02T11:38:04;1.42;;;0.47;;
35959;SDS011;22043;50.970;7.192;2024-03-02T11:40:29;2.67;;;0.60;;
35959;SDS011;22043;50.970;7.192;2024-03-02T11:42:56;2.75;;;0.55;;
35959;SDS011;22043;50.970;7.192;2024-03-02T11:45:22;2.38;;;0.70;;
35959;SDS011;22043;50.970;7.192;2024-03-02T11:47:52;1.42;;;0.50;;
35959;SDS011;22043;50.970;7.192;2024-03-02T11:50:35;1.17;;;0.70;;
35959;SDS011;22043;50.970;7.192;2024-03-02T11:53:03;0.60;;;0.40;;
35959;SDS011;22043;50.970;7.192;2024-03-02T11:55:36;1.35;;;0.60;;
35959;SDS011;22043;50.970;7.192;2024-03-02T11:58:03;0.73;;;0.40;;
35959;SDS011;22043;50.970;7.192;2024-03-02T12:00:29;0.90;;;0.35;;
35959;SDS011;22043;50.970;7.192;2024-03-02T12:03:01;3.17;;;0.45;;
35959;SDS011;22043;50.970;7.192;2024-03-02T12:05:33;1.88;;;0.50;;
35959;SDS011;22043;50.970;7.192;2024-03-02T12:07:59;1.10;;;0.50;;
35959;SDS011;22043;50.970;7.192;2024-03-02T12:10:29;1.02;;;0.68;;
35959;SDS011;22043;50.970;7.192;2024-03-02T12:13:01;0.82;;;0.45;;
35959;SDS011;22043;50.970;7.192;2024-03-02T12:15:28;1.15;;;0.47;;
35959;SDS011;22043;50.970;7.192;2024-03-02T12:17:54;1.60;;;0.35;;
35959;SDS011;22043;50.970;7.192;2024-03-02T12:20:21;1.92;;;0.65;;
35959;SDS011;22043;50.970;7.192;2024-03-02T12:22:48;1.52;;;0.38;;
35959;SDS011;22043;50.970;7.192;2024-03-02T12:25:15;1.15;;;0.50;;
35959;SDS011;22043;50.970;7.192;2024-03-02T12:27:41;1.02;;;0.50;;
35959;SDS011;22043;50.970;7.192;2024-03-02T12:30:07;0.75;;;0.32;;
35959;SDS011;22043;50.970;7.192;2024-03-02T12:32:36;2.53;;;0.80;;
35959;SDS011;22043;50.970;7.192;2024-03-02T12:35:04;1.55;;;0.50;;
35959;SDS011;22043;50.970;7.192;2024-03-02T12:37:30;1.30;;;0.50;;
35959;SDS011;22043;50.970;7.192;2024-03-02T12:39:55;1.38;;;0.50;;
35959;SDS011;22043;50.970;7.192;2024-03-02T12:42:21;3.55;;;0.60;;
35959;SDS011;22043;50.970;7.192;2024-03-02T12:44:52;1.45;;;0.45;;
35959;SDS011;22043;50.970;7.192;2024-03-02T12:47:20;2.35;;;0.65;;
35959;SDS011;22043;50.970;7.192;2024-03-02T12:49:46;5.30;;;1.02;;
35959;SDS011;22043;50.970;7.192;2024-03-02T12:52:12;3.50;;;0.60;;
35959;SDS011;22043;50.970;7.192;2024-03-02T12:54:38;2.35;;;0.30;;
35959;SDS011;22043;50.970;7.192;2024-03-02T12:57:03;1.27;;;0.40;;
35959;SDS011;22043;50.970;7.192;2024-03-02T12:59:29;1.00;;;0.30;;
35959;SDS011;22043;50.970;7.192;2024-03-02T13:01:56;1.73;;;0.40;;
35959;SDS011;22043;50.970;7.192;2024-03-02T13:04:27;1.13;;;0.40;;
35959;SDS011;22043;50.970;7.192;2024-03-02T13:06:54;2.20;;;0.85;;
35959;SDS011;22043;50.970;7.192;2024-03-02T13:09:21;0.70;;;0.32;;
35959;SDS011;22043;50.970;7.192;2024-03-02T13:11:47;1.25;;;0.50;;
35959;SDS011;22043;50.970;7.192;2024-03-02T13:14:13;0.70;;;0.47;;
35959;SDS011;22043;50.970;7.192;2024-03-02T13:16:41;2.95;;;0.32;;
35959;SDS011;22043;50.970;7.192;2024-03-02T13:19:13;0.40;;;0.30;;
35959;SDS011;22043;50.970;7.192;2024-03-02T13:21:39;0.75;;;0.50;;
35959;SDS011;22043;50.970;7.192;2024-03-02T13:24:04;2.40;;;0.70;;
35959;SDS011;22043;50.970;7.192;2024-03-02T13:26:30;0.68;;;0.30;;
35959;SDS011;22043;50.970;7.192;2024-03-02T13:28:56;1.55;;;0.40;;
35959;SDS011;22043;50.970;7.192;2024-03-02T13:31:22;1.42;;;0.50;;
35959;SDS011;22043;50.970;7.192;2024-03-02T13:33:47;2.85;;;0.85;;
35959;SDS011;22043;50.970;7.192;2024-03-02T13:36:13;2.22;;;0.68;;
35959;SDS011;22043;50.970;7.192;2024-03-02T13:38:38;0.93;;;0.50;;
35959;SDS011;22043;50.970;7.192;2024-03-02T13:41:04;1.48;;;0.88;;
35959;SDS011;22043;50.970;7.192;2024-03-02T13:43:29;2.45;;;0.43;;
35959;SDS011;22043;50.970;7.192;2024-03-02T13:45:58;0.60;;;0.32;;
35959;SDS011;22043;50.970;7.192;2024-03-02T13:48:24;1.58;;;0.50;;
35959;SDS011;22043;50.970;7.192;2024-03-02T13:50:53;0.80;;;0.30;;
35959;SDS011;22043;50.970;7.192;2024-03-02T13:53:19;0.95;;;0.40;;
35959;SDS011;22043;50.970;7.192;2024-03-02T13:55:45;2.05;;;0.70;;
35959;SDS011;22043;50.970;7.192;2024-03-02T13:58:13;2.35;;;0.60;;
35959;SDS011;22043;50.970;7.192;2024-03-02T14:00:39;1.23;;;0.40;;
35959;SDS011;22043;50.970;7.192;2024-03-02T14:03:05;3.17;;;0.63;;
35959;SDS011;22043;50.970;7.192;2024-03-02T14:05:31;3.17;;;0.50;;
35959;SDS011;22043;50.970;7.192;2024-03-02T14:07:57;1.63;;;0.50;;
35959;SDS011;22043;50.970;7.192;2024-03-02T14:10:23;1.48;;;0.50;;
35959;SDS011;22043;50.970;7.192;2024-03-02T14:12:49;0.90;;;0.52;;
35959;SDS011;22043;50.970;7.192;2024-03-02T14:15:15;2.70;;;0.32;;
35959;SDS011;22043;50.970;7.192;2024-03-02T14:17:40;1.70;;;0.52;;
35959;SDS011;22043;50.970;7.192;2024-03-02T14:20:06;3.70;;;0.60;;
35959;SDS011;22043;50.970;7.192;2024-03-02T14:22:32;2.78;;;0.90;;
35959;SDS011;22043;50.970;7.192;2024-03-02T14:24:59;1.33;;;0.47;;
35959;SDS011;22043;50.970;7.192;2024-03-02T14:27:24;2.05;;;0.60;;
35959;SDS011;22043;50.970;7.192;2024-03-02T14:29:50;2.30;;;0.90;;
35959;SDS011;22043;50.970;7.192;2024-03-02T14:32:19;1.98;;;0.60;;
35959;SDS011;22043;50.970;7.192;2024-03-02T14:34:44;1.05;;;0.38;;
35959;SDS011;22043;50.970;7.192;2024-03-02T14:37:12;0.55;;;0.20;;
35959;SDS011;22043;50.970;7.192;2024-03-02T14:39:38;1.10;;;0.60;;
35959;SDS011;22043;50.970;7.192;2024-03-02T14:42:04;0.82;;;0.30;;
35959;SDS011;22043;50.970;7.192;2024-03-02T14:44:29;2.30;;;0.40;;
35959;SDS011;22043;50.970;7.192;2024-03-02T14:46:55;4.95;;;0.45;;
35959;SDS011;22043;50.970;7.192;2024-03-02T14:49:22;2.60;;;0.55;;
35959;SDS011;22043;50.970;7.192;2024-03-02T14:51:47;2.03;;;0.40;;
35959;SDS011;22043;50.970;7.192;2024-03-02T14:54:14;1.00;;;0.47;;
35959;SDS011;22043;50.970;7.192;2024-03-02T14:56:40;1.38;;;0.35;;
35959;SDS011;22043;50.970;7.192;2024-03-02T14:59:05;0.80;;;0.20;;
35959;SDS011;22043;50.970;7.192;2024-03-02T15:01:30;4.10;;;0.60;;